createdAt,value
2023-07-25T00:01:08.981Z,19.39
2023-07-25T00:03:37.356Z,19.40
2023-07-25T00:06:05.161Z,19.40
2023-07-25T00:08:33.494Z,19.39
2023-07-25T00:11:01.420Z,19.35
2023-07-25T00:13:29.135Z,19.31
2023-07-25T00:15:56.850Z,19.27
2023-07-25T00:18:24.528Z,19.27
2023-07-25T00:20:52.179Z,19.29
2023-07-25T00:23:20.034Z,19.30
2023-07-25T00:25:47.779Z,19.32
2023-07-25T00:28:16.123Z,19.30
2023-07-25T00:30:43.758Z,19.29
2023-07-25T00:33:11.448Z,19.31
2023-07-25T00:35:39.112Z,19.33
2023-07-25T00:38:07.085Z,19.37
2023-07-25T00:40:39.774Z,19.39
2023-07-25T00:43:07.489Z,19.39
2023-07-25T00:45:35.363Z,19.36
2023-07-25T00:48:03.333Z,19.34
2023-07-25T00:50:31.041Z,19.33
2023-07-25T00:52:59.924Z,19.33
2023-07-25T00:55:28.632Z,19.32
2023-07-25T00:57:56.331Z,19.30
2023-07-25T01:00:24.269Z,19.27
2023-07-25T01:02:52.058Z,19.22
2023-07-25T01:05:20.253Z,19.16
2023-07-25T01:07:48.343Z,19.13
2023-07-25T01:10:16.191Z,19.13
2023-07-25T01:12:43.965Z,19.13
2023-07-25T01:15:11.616Z,19.12
2023-07-25T01:17:39.539Z,19.12
2023-07-25T01:20:09.420Z,19.12
2023-07-25T01:22:37.906Z,19.14
2023-07-25T01:25:05.928Z,19.18
2023-07-25T01:27:33.563Z,19.22
2023-07-25T01:30:01.363Z,19.23
2023-07-25T01:32:29.193Z,19.23
2023-07-25T01:34:57.119Z,19.23
2023-07-25T01:37:24.863Z,19.24
2023-07-25T01:39:52.558Z,19.26
2023-07-25T01:42:20.409Z,19.29
2023-07-25T01:44:48.042Z,19.29
2023-07-25T01:47:15.702Z,19.28
2023-07-25T01:49:43.506Z,19.25
2023-07-25T01:52:11.131Z,19.24
2023-07-25T01:54:38.795Z,19.25
2023-07-25T01:57:07.134Z,19.25
2023-07-25T01:59:34.961Z,19.23
2023-07-25T02:02:02.670Z,19.21
2023-07-25T02:04:30.500Z,19.16
2023-07-25T02:06:58.180Z,19.12
2023-07-25T02:09:25.821Z,19.09
2023-07-25T02:11:54.377Z,19.09
2023-07-25T02:14:22.067Z,19.10
2023-07-25T02:16:49.806Z,19.09
2023-07-25T02:19:17.529Z,19.07
2023-07-25T02:21:45.157Z,19.04
2023-07-25T02:24:12.834Z,19.02
2023-07-25T02:26:40.544Z,19.03
2023-07-25T02:29:08.335Z,19.05
2023-07-25T02:31:36.334Z,19.06
2023-07-25T02:34:03.982Z,19.08
2023-07-25T02:36:31.661Z,19.07
2023-07-25T02:38:59.331Z,19.07
2023-07-25T02:41:27.182Z,19.09
2023-07-25T02:43:54.931Z,19.13
2023-07-25T02:46:22.637Z,19.17
2023-07-25T02:48:50.640Z,19.19
2023-07-25T02:51:18.983Z,19.20
2023-07-25T02:53:46.689Z,19.20
2023-07-25T02:56:14.319Z,19.18
2023-07-25T02:58:41.986Z,19.16
2023-07-25T03:01:09.949Z,19.18
2023-07-25T03:03:37.847Z,19.21
2023-07-25T03:06:05.558Z,19.22
2023-07-25T03:08:33.301Z,19.22
2023-07-25T03:11:01.030Z,19.22
2023-07-25T03:13:28.874Z,19.19
2023-07-25T03:15:56.536Z,19.17
2023-07-25T03:18:24.200Z,19.15
2023-07-25T03:20:52.016Z,19.16
2023-07-25T03:23:19.695Z,19.17
2023-07-25T03:25:47.472Z,19.16
2023-07-25T03:28:15.179Z,19.15
2023-07-25T03:30:42.863Z,19.13
2023-07-25T03:33:10.581Z,19.11
2023-07-25T03:35:38.351Z,19.11
2023-07-25T03:38:06.003Z,19.14
2023-07-25T03:40:33.704Z,19.18
2023-07-25T03:43:01.345Z,19.18
2023-07-25T03:45:28.982Z,19.18
2023-07-25T03:47:56.658Z,19.18
2023-07-25T03:50:24.370Z,19.16
2023-07-25T03:52:52.273Z,19.14
2023-07-25T03:55:19.921Z,19.14
2023-07-25T03:57:47.603Z,19.15
2023-07-25T04:00:15.717Z,19.17
2023-07-25T04:02:43.484Z,19.16
2023-07-25T04:05:11.221Z,19.13
2023-07-25T04:07:39.267Z,19.09
2023-07-25T04:10:07.588Z,19.06
2023-07-25T04:12:35.454Z,19.03
2023-07-25T04:15:03.692Z,19.02
2023-07-25T04:17:31.354Z,19.03
2023-07-25T04:19:59.164Z,19.06
2023-07-25T04:22:27.453Z,19.07
2023-07-25T04:24:55.149Z,19.08
2023-07-25T04:27:23.095Z,19.08
2023-07-25T04:29:50.813Z,19.09
2023-07-25T04:32:18.451Z,19.10
2023-07-25T04:34:46.086Z,19.13
2023-07-25T04:37:13.773Z,19.20
2023-07-25T04:39:41.409Z,19.29
2023-07-25T04:42:09.226Z,19.36
2023-07-25T04:44:36.876Z,19.43
2023-07-25T04:47:04.938Z,19.49
2023-07-25T04:49:32.546Z,19.54
2023-07-25T04:52:00.217Z,19.59
2023-07-25T04:54:27.841Z,19.65
2023-07-25T04:56:55.600Z,19.72
2023-07-25T04:59:23.236Z,19.79
2023-07-25T05:01:50.915Z,19.85
2023-07-25T05:04:18.620Z,19.90
2023-07-25T05:06:46.327Z,19.95
2023-07-25T05:09:14.022Z,20.00
2023-07-25T05:11:42.080Z,20.04
2023-07-25T05:14:09.953Z,20.10
2023-07-25T05:16:37.678Z,20.17
2023-07-25T05:19:05.518Z,20.24
2023-07-25T05:21:33.557Z,20.29
2023-07-25T05:24:02.480Z,20.32
2023-07-25T05:26:30.122Z,20.35
2023-07-25T05:28:57.849Z,20.39
2023-07-25T05:31:25.515Z,20.41
2023-07-25T05:33:53.228Z,20.43
2023-07-25T05:36:20.967Z,20.48
2023-07-25T05:38:48.603Z,20.55
2023-07-25T05:41:16.310Z,20.58
2023-07-25T05:43:43.952Z,20.61
2023-07-25T05:46:11.644Z,20.63
2023-07-25T05:48:39.424Z,20.66
2023-07-25T05:51:07.414Z,20.67
2023-07-25T05:53:35.200Z,20.72
2023-07-25T05:56:03.372Z,20.77
2023-07-25T05:58:31.526Z,20.83
2023-07-25T06:00:59.329Z,20.86
2023-07-25T06:03:27.530Z,20.88
2023-07-25T06:05:55.395Z,20.90
2023-07-25T06:08:23.196Z,20.92
2023-07-25T06:10:51.186Z,20.99
2023-07-25T06:13:19.004Z,21.09
2023-07-25T06:15:48.193Z,21.19
2023-07-25T06:18:16.113Z,21.23
2023-07-25T06:20:43.861Z,21.25
2023-07-25T06:23:11.541Z,21.26
2023-07-25T06:25:39.336Z,21.27
2023-07-25T06:28:07.359Z,21.27
2023-07-25T06:30:35.030Z,21.23
2023-07-25T06:33:02.757Z,21.21
2023-07-25T06:35:30.524Z,21.22
2023-07-25T06:37:58.191Z,21.26
2023-07-25T06:40:25.899Z,21.28
2023-07-25T06:42:53.576Z,21.28
2023-07-25T06:45:21.225Z,21.27
2023-07-25T06:47:49.092Z,21.27
2023-07-25T06:50:17.244Z,21.28
2023-07-25T06:52:44.906Z,21.29
2023-07-25T06:55:12.686Z,21.34
2023-07-25T06:57:40.323Z,21.41
2023-07-25T07:00:09.266Z,21.45
2023-07-25T07:02:37.218Z,21.50
2023-07-25T07:05:19.374Z,21.55
2023-07-25T07:07:54.454Z,21.59
2023-07-25T07:10:22.090Z,21.62
2023-07-25T07:12:49.966Z,21.65
2023-07-25T07:15:17.691Z,21.70
2023-07-25T07:17:45.932Z,21.75
2023-07-25T07:20:13.592Z,21.81
2023-07-25T07:22:41.331Z,21.85
2023-07-25T07:25:09.727Z,21.92
2023-07-25T07:27:37.369Z,22.03
2023-07-25T07:30:05.665Z,22.14
2023-07-25T07:32:33.565Z,22.20
2023-07-25T07:35:01.209Z,22.19
2023-07-25T07:37:28.917Z,22.21
2023-07-25T07:39:56.568Z,22.24
2023-07-25T07:42:24.265Z,22.28
2023-07-25T07:44:52.192Z,22.34
2023-07-25T07:47:19.916Z,22.42
2023-07-25T07:49:47.590Z,22.53
2023-07-25T07:52:20.136Z,22.69
2023-07-25T07:54:57.390Z,22.91
2023-07-25T07:57:25.057Z,23.09
2023-07-25T07:59:53.401Z,23.18
2023-07-25T08:02:21.230Z,23.16
2023-07-25T08:04:49.052Z,23.12
2023-07-25T08:07:16.843Z,23.10
2023-07-25T08:09:44.597Z,23.07
2023-07-25T08:12:12.272Z,23.12
2023-07-25T08:14:39.953Z,23.22
2023-07-25T08:17:07.948Z,23.33
2023-07-25T08:19:35.579Z,23.40
2023-07-25T08:22:03.375Z,23.44
2023-07-25T08:24:31.393Z,23.50
2023-07-25T08:27:00.433Z,23.53
2023-07-25T08:29:28.213Z,23.52
2023-07-25T08:31:55.927Z,23.47
2023-07-25T08:34:24.041Z,23.39
2023-07-25T08:36:51.685Z,23.32
2023-07-25T08:39:19.442Z,23.27
2023-07-25T08:41:48.956Z,23.32
2023-07-25T08:44:16.603Z,23.44
2023-07-25T08:46:45.900Z,23.59
2023-07-25T08:49:15.963Z,23.74
2023-07-25T08:51:44.927Z,23.89
2023-07-25T08:54:31.223Z,24.06
2023-07-25T08:56:59.322Z,24.15
2023-07-25T08:59:27.208Z,24.18
2023-07-25T09:01:55.169Z,24.18
2023-07-25T09:04:24.669Z,24.20
2023-07-25T09:06:52.907Z,24.25
2023-07-25T09:09:20.637Z,24.32
2023-07-25T09:11:48.344Z,24.43
2023-07-25T09:14:16.011Z,24.56
2023-07-25T09:16:43.845Z,24.70
2023-07-25T09:19:12.455Z,24.84
2023-07-25T09:21:51.928Z,25.02
2023-07-25T09:24:19.954Z,25.23
2023-07-25T09:26:51.666Z,25.41
2023-07-25T09:29:19.639Z,25.60
2023-07-25T09:31:47.717Z,25.74
2023-07-25T09:34:18.993Z,25.79
2023-07-25T09:36:48.719Z,25.78
2023-07-25T09:39:16.997Z,25.75
2023-07-25T09:41:46.680Z,25.69
2023-07-25T09:44:14.606Z,25.59
2023-07-25T09:46:51.707Z,25.53
2023-07-25T09:49:23.089Z,25.52
2023-07-25T09:52:01.000Z,25.50
2023-07-25T09:54:29.021Z,25.52
2023-07-25T09:56:56.678Z,25.55
2023-07-25T09:59:24.418Z,25.60
2023-07-25T10:01:52.282Z,25.60
2023-07-25T10:04:20.884Z,25.56
2023-07-25T10:06:48.817Z,25.50
2023-07-25T10:09:16.505Z,25.41
2023-07-25T10:11:44.169Z,25.33
2023-07-25T10:14:11.998Z,25.25
2023-07-25T10:16:39.699Z,25.18
2023-07-25T10:19:07.586Z,25.12
2023-07-25T10:21:51.694Z,25.04
2023-07-25T10:24:20.827Z,24.95
2023-07-25T10:27:01.227Z,24.86
2023-07-25T10:29:40.163Z,24.76
2023-07-25T10:32:11.655Z,24.65
2023-07-25T10:34:53.831Z,24.53
2023-07-25T10:37:29.615Z,24.43
2023-07-25T10:40:04.879Z,24.31
2023-07-25T10:45:28.167Z,24.01
2023-07-25T10:48:01.179Z,23.86
2023-07-25T10:50:51.150Z,23.75
2023-07-25T10:53:22.946Z,23.68
2023-07-25T10:56:09.390Z,23.69
2023-07-25T10:58:39.595Z,23.76
2023-07-25T11:01:07.920Z,23.85
2023-07-25T11:03:37.146Z,23.96
2023-07-25T11:06:07.922Z,24.07
2023-07-25T11:08:35.980Z,24.20
2023-07-25T11:11:04.471Z,24.28
2023-07-25T11:13:36.608Z,24.33
2023-07-25T11:16:05.186Z,24.39
2023-07-25T11:18:38.601Z,24.44
2023-07-25T11:21:08.581Z,24.52
2023-07-25T11:23:36.299Z,24.59
2023-07-25T11:26:05.195Z,24.65
2023-07-25T11:28:32.958Z,24.68
2023-07-25T11:31:00.856Z,24.66
2023-07-25T11:33:29.097Z,24.59
2023-07-25T11:35:57.201Z,24.53
2023-07-25T11:38:25.016Z,24.46
2023-07-25T11:40:57.666Z,24.38
2023-07-25T11:43:29.348Z,24.28
2023-07-25T11:45:57.380Z,24.19
2023-07-25T11:48:25.212Z,24.07
2023-07-25T11:50:52.926Z,23.94
2023-07-25T11:53:21.623Z,23.81
2023-07-25T11:55:52.110Z,23.69
2023-07-25T11:58:20.439Z,23.54
2023-07-25T12:00:55.565Z,23.41
2023-07-25T12:03:24.827Z,23.27
2023-07-25T12:05:58.004Z,23.14
2023-07-25T12:08:36.769Z,23.01
2023-07-25T12:11:05.602Z,22.89
2023-07-25T12:13:33.546Z,22.79
2023-07-25T12:16:03.122Z,22.68
2023-07-25T12:18:35.971Z,22.50
2023-07-25T12:21:04.931Z,22.26
2023-07-25T12:23:40.007Z,21.98
2023-07-25T12:26:12.498Z,21.68
2023-07-25T12:28:42.971Z,21.44
2023-07-25T12:31:11.305Z,21.25
2023-07-25T12:33:39.678Z,21.13
2023-07-25T12:36:07.631Z,21.02
2023-07-25T12:38:35.476Z,20.90
2023-07-25T12:41:04.057Z,20.81
2023-07-25T12:43:31.847Z,20.79
2023-07-25T12:45:59.792Z,20.83
2023-07-25T12:48:27.492Z,20.88
2023-07-25T12:50:55.342Z,20.91
2023-07-25T12:53:23.054Z,20.91
2023-07-25T12:55:50.675Z,20.93
2023-07-25T12:58:18.534Z,20.91
2023-07-25T13:00:46.239Z,20.90
2023-07-25T13:03:14.042Z,20.93
2023-07-25T13:05:42.996Z,20.94
2023-07-25T13:08:10.721Z,20.97
2023-07-25T13:10:38.384Z,20.95
2023-07-25T13:13:06.092Z,20.94
2023-07-25T13:15:35.113Z,20.91
2023-07-25T13:18:02.841Z,20.90
2023-07-25T13:20:30.685Z,20.91
2023-07-25T13:22:58.371Z,20.93
2023-07-25T13:25:26.168Z,20.97
2023-07-25T13:27:53.999Z,20.99
2023-07-25T13:30:21.706Z,21.01
2023-07-25T13:32:49.473Z,21.03
2023-07-25T13:35:17.534Z,21.04
2023-07-25T13:37:45.323Z,21.06
2023-07-25T13:40:13.273Z,21.10
2023-07-25T13:42:41.265Z,21.16
2023-07-25T13:45:09.714Z,21.20
2023-07-25T13:47:37.588Z,21.25
2023-07-25T13:50:05.678Z,21.30
2023-07-25T13:52:33.490Z,21.36
2023-07-25T13:55:01.193Z,21.37
2023-07-25T13:57:32.765Z,21.35
2023-07-25T14:00:01.939Z,21.29
2023-07-25T14:02:29.661Z,21.20
2023-07-25T14:04:57.380Z,21.08
2023-07-25T14:07:25.335Z,20.93
2023-07-25T14:09:52.993Z,20.75
2023-07-25T14:12:20.782Z,20.55
2023-07-25T14:14:48.489Z,20.35
2023-07-25T14:17:16.179Z,20.18
2023-07-25T14:19:44.107Z,20.03
2023-07-25T14:22:11.812Z,19.89
2023-07-25T14:24:39.552Z,19.78
2023-07-25T14:27:07.448Z,19.67
2023-07-25T14:29:35.243Z,19.57
2023-07-25T14:32:02.982Z,19.52
2023-07-25T14:34:30.642Z,19.44
2023-07-25T14:36:58.466Z,19.39
2023-07-25T14:39:26.122Z,19.34
2023-07-25T14:41:53.857Z,19.29
2023-07-25T14:44:21.658Z,19.26
2023-07-25T14:46:49.384Z,19.26
2023-07-25T14:49:17.219Z,19.27
2023-07-25T14:51:45.011Z,19.28
2023-07-25T14:54:12.687Z,19.31
2023-07-25T14:56:40.493Z,19.31
2023-07-25T14:59:08.300Z,19.31
2023-07-25T15:01:36.124Z,19.32
2023-07-25T15:04:04.033Z,19.35
2023-07-25T15:06:31.990Z,19.39
2023-07-25T15:08:59.890Z,19.43
2023-07-25T15:11:27.770Z,19.44
2023-07-25T15:13:55.429Z,19.44
2023-07-25T15:16:23.216Z,19.43
2023-07-25T15:18:50.923Z,19.43
2023-07-25T15:21:18.637Z,19.45
2023-07-25T15:23:46.293Z,19.49
2023-07-25T15:26:14.051Z,19.50
2023-07-25T15:28:41.706Z,19.49
2023-07-25T15:31:09.368Z,19.46
2023-07-25T15:33:37.284Z,19.43
2023-07-25T15:36:05.230Z,19.43
2023-07-25T15:38:33.942Z,19.46
2023-07-25T15:41:01.624Z,19.50
2023-07-25T15:43:29.245Z,19.55
2023-07-25T15:45:56.910Z,19.60
2023-07-25T15:48:24.537Z,19.65
2023-07-25T15:50:52.179Z,19.71
2023-07-25T15:53:19.836Z,19.76
2023-07-25T15:55:48.031Z,19.82
2023-07-25T15:58:15.668Z,19.88
2023-07-25T16:00:43.481Z,19.95
2023-07-25T16:03:11.452Z,19.99
2023-07-25T16:05:39.692Z,20.01
2023-07-25T16:08:07.428Z,20.01
2023-07-25T16:10:35.072Z,20.01
2023-07-25T16:13:03.358Z,19.98
2023-07-25T16:15:33.513Z,19.98
2023-07-25T16:18:01.587Z,19.99
2023-07-25T16:20:29.519Z,19.99
2023-07-25T16:22:57.210Z,19.98
2023-07-25T16:25:25.362Z,19.96
2023-07-25T16:27:53.264Z,19.93
2023-07-25T16:30:20.971Z,19.88
2023-07-25T16:32:48.671Z,19.86
2023-07-25T16:35:16.503Z,19.86
2023-07-25T16:37:44.272Z,19.86
2023-07-25T16:40:12.065Z,19.85
2023-07-25T16:42:41.401Z,19.84
2023-07-25T16:45:09.439Z,19.84
2023-07-25T16:47:37.172Z,19.83
2023-07-25T16:50:05.370Z,19.84
2023-07-25T16:52:35.699Z,19.90
2023-07-25T16:55:03.978Z,19.98
2023-07-25T16:57:31.936Z,20.10
2023-07-25T16:59:59.605Z,20.31
2023-07-25T17:02:27.469Z,20.49
2023-07-25T17:04:56.151Z,20.63
2023-07-25T17:07:23.844Z,20.72
2023-07-25T17:09:51.500Z,20.76
2023-07-25T17:12:19.260Z,20.80
2023-07-25T17:14:46.924Z,20.81
2023-07-25T17:17:14.593Z,20.78
2023-07-25T17:19:42.234Z,20.73
2023-07-25T17:22:09.879Z,20.67
2023-07-25T17:24:39.264Z,20.73
2023-07-25T17:27:07.200Z,20.82
2023-07-25T17:29:34.870Z,20.94
2023-07-25T17:32:03.195Z,21.09
2023-07-25T17:34:31.078Z,21.25
2023-07-25T17:36:58.984Z,21.41
2023-07-25T17:39:26.707Z,21.46
2023-07-25T17:41:54.592Z,21.42
2023-07-25T17:44:22.295Z,21.39
2023-07-25T17:46:50.128Z,21.39
2023-07-25T17:49:20.527Z,21.37
2023-07-25T17:51:48.954Z,21.33
2023-07-25T17:54:16.620Z,21.29
2023-07-25T17:56:44.407Z,21.27
2023-07-25T17:59:12.264Z,21.22
2023-07-25T18:01:39.932Z,21.15
2023-07-25T18:04:07.575Z,21.06
2023-07-25T18:06:35.325Z,20.95
2023-07-25T18:09:03.071Z,20.85
2023-07-25T18:11:31.106Z,20.72
2023-07-25T18:13:59.146Z,20.61
2023-07-25T18:16:26.982Z,20.52
2023-07-25T18:18:54.643Z,20.43
2023-07-25T18:21:22.321Z,20.33
2023-07-25T18:23:50.175Z,20.21
2023-07-25T18:26:17.959Z,20.08
2023-07-25T18:28:45.596Z,19.97
2023-07-25T18:31:13.291Z,19.88
2023-07-25T18:33:41.177Z,19.80
2023-07-25T18:36:08.992Z,19.74
2023-07-25T18:38:36.717Z,19.67
2023-07-25T18:41:04.462Z,19.61
2023-07-25T18:43:32.225Z,19.55
2023-07-25T18:46:00.072Z,19.48
2023-07-25T18:48:27.723Z,19.42
2023-07-25T18:50:55.483Z,19.37
2023-07-25T18:53:23.150Z,19.36
2023-07-25T18:55:51.254Z,19.33
2023-07-25T18:58:18.942Z,19.29
2023-07-25T19:00:49.008Z,19.25
2023-07-25T19:03:16.953Z,19.20
2023-07-25T19:05:44.694Z,19.18
2023-07-25T19:08:12.380Z,19.18
2023-07-25T19:10:40.324Z,19.19
2023-07-25T19:13:08.001Z,19.17
2023-07-25T19:15:35.620Z,19.15
2023-07-25T19:18:03.471Z,19.11
2023-07-25T19:20:31.234Z,19.06
2023-07-25T19:23:00.497Z,19.02
2023-07-25T19:25:32.779Z,19.02
2023-07-25T19:28:01.166Z,19.01
2023-07-25T19:30:29.082Z,19.00
2023-07-25T19:32:57.107Z,18.99
2023-07-25T19:35:24.842Z,18.97
2023-07-25T19:37:52.636Z,18.93
2023-07-25T19:40:20.362Z,18.90
2023-07-25T19:42:48.051Z,18.89
2023-07-25T19:45:15.835Z,18.88
2023-07-25T19:47:43.584Z,18.86
2023-07-25T19:50:11.809Z,18.84
2023-07-25T19:52:39.543Z,18.80
2023-07-25T19:55:07.586Z,18.76
2023-07-25T19:57:38.563Z,18.73
2023-07-25T20:00:07.559Z,18.71
2023-07-25T20:02:35.495Z,18.70
2023-07-25T20:05:03.339Z,18.68
2023-07-25T20:07:30.971Z,18.65
2023-07-25T20:09:58.636Z,18.61
2023-07-25T20:12:26.674Z,18.55
2023-07-25T20:14:54.344Z,18.52
2023-07-25T20:17:22.079Z,18.50
2023-07-25T20:19:49.730Z,18.50
2023-07-25T20:22:17.394Z,18.48
2023-07-25T20:24:45.143Z,18.47
2023-07-25T20:27:12.928Z,18.44
2023-07-25T20:29:40.569Z,18.41
2023-07-25T20:32:09.073Z,18.39
2023-07-25T20:34:36.812Z,18.39
2023-07-25T20:37:04.759Z,18.40
2023-07-25T20:39:32.483Z,18.42
2023-07-25T20:42:00.157Z,18.42
2023-07-25T20:44:27.825Z,18.37
2023-07-25T20:46:55.646Z,18.32
2023-07-25T20:49:23.366Z,18.29
2023-07-25T20:51:51.280Z,18.30
2023-07-25T20:54:19.228Z,18.32
2023-07-25T20:56:47.155Z,18.33
2023-07-25T20:59:15.140Z,18.32
2023-07-25T21:01:42.989Z,18.30
2023-07-25T21:04:10.696Z,18.29
2023-07-25T21:06:38.342Z,18.31
2023-07-25T21:09:06.282Z,18.33
2023-07-25T21:11:33.943Z,18.34
2023-07-25T21:14:01.609Z,18.34
2023-07-25T21:16:31.206Z,18.33
2023-07-25T21:18:59.180Z,18.30
2023-07-25T21:21:26.834Z,18.30
2023-07-25T21:23:54.511Z,18.31
2023-07-25T21:26:22.160Z,18.33
2023-07-25T21:28:49.832Z,18.33
2023-07-25T21:31:17.483Z,18.31
2023-07-25T21:33:45.158Z,18.27
2023-07-25T21:36:14.364Z,18.24
2023-07-25T21:38:42.706Z,18.21
2023-07-25T21:41:15.582Z,18.18
2023-07-25T21:43:43.584Z,18.16
2023-07-25T21:46:11.359Z,18.12
2023-07-25T21:48:39.248Z,18.05
2023-07-25T21:51:07.634Z,18.03
2023-07-25T21:53:35.344Z,18.02
2023-07-25T21:56:03.068Z,18.04
2023-07-25T21:58:30.892Z,18.07
2023-07-25T22:00:59.028Z,18.07
2023-07-25T22:03:29.247Z,18.05
2023-07-25T22:05:58.022Z,18.02
2023-07-25T22:08:25.767Z,18.00
2023-07-25T22:10:53.724Z,18.01
2023-07-25T22:13:21.630Z,18.01
2023-07-25T22:15:49.461Z,18.01
2023-07-25T22:18:17.179Z,18.00
2023-07-25T22:20:51.757Z,17.97
2023-07-25T22:23:21.464Z,17.95
2023-07-25T22:25:49.472Z,17.95
2023-07-25T22:28:17.140Z,17.94
2023-07-25T22:30:45.068Z,17.94
2023-07-25T22:33:12.784Z,17.93
2023-07-25T22:35:40.424Z,17.90
2023-07-25T22:38:08.063Z,17.87
2023-07-25T22:40:35.800Z,17.87
2023-07-25T22:43:03.519Z,17.87
2023-07-25T22:45:31.253Z,17.82
2023-07-25T22:47:59.010Z,17.78
2023-07-25T22:50:26.797Z,17.72
2023-07-25T22:52:54.766Z,17.67
2023-07-25T22:55:22.643Z,17.61
2023-07-25T22:57:50.276Z,17.60
2023-07-25T23:00:18.026Z,17.59
2023-07-25T23:02:45.864Z,17.58
2023-07-25T23:05:13.674Z,17.55
2023-07-25T23:07:41.370Z,17.52
2023-07-25T23:10:09.672Z,17.49
2023-07-25T23:12:37.314Z,17.48
2023-07-25T23:15:05.811Z,17.49
2023-07-25T23:17:33.538Z,17.49
2023-07-25T23:20:01.208Z,17.47
2023-07-25T23:22:28.878Z,17.43
2023-07-25T23:24:57.445Z,17.39
2023-07-25T23:27:25.231Z,17.36
2023-07-25T23:29:53.164Z,17.36
2023-07-25T23:32:20.956Z,17.35
2023-07-25T23:34:50.556Z,17.32
2023-07-25T23:37:18.288Z,17.28
2023-07-25T23:39:46.314Z,17.25
2023-07-25T23:42:15.049Z,17.25
2023-07-25T23:44:42.731Z,17.27
2023-07-25T23:47:11.836Z,17.29
2023-07-25T23:49:39.737Z,17.30
2023-07-25T23:52:08.011Z,17.29
2023-07-25T23:54:35.739Z,17.29
2023-07-25T23:57:04.566Z,17.27
2023-07-25T23:59:32.498Z,17.28
